CFG288 EDDF-FAOR
Flight info
| Callsign | CFG288 |
|---|---|
| Flight time | N/A |
| Altitude | 35000 |
| Route | ANEKI2L/18 ANEKI Y163 NATOR DCT TRA/N0465F370 DCT RIPUS DCT GERSA DCT SOSON DCT ODINA DCT PIDAD DCT TALEP DCT VAREK DCT ERPIN DCT ETOIL DCT CIRTA UA605 CSO UM2 DJA UB730 RAKOM/N0463F390 UB730 DIR UA607 FL UM731 EXIGO/N0461F410 UM731 RUDAS UQ25 ITROL UQ44 AVAGO AVAGO1C |
| Aircraft | A339/H-SADE1E2E3GHIJ1J3J5M1P2RWXY/LB2D1 |
Departure
| Time | 2026-05-04 20:37 |
|---|---|
| Airport | Frankfurt Main Airport (EDDF) |
Arrival
| Time | N/A |
|---|---|
| Airport | O.R. Tambo International Airport (FAOR) |
| Time | Latitude | Longitude | Altitude | Speed | Heading |
|---|---|---|---|---|---|
| 2026-05-04 20:06 | 50.03799 | 8.54489 | 362 ft | 0 kts | 159° |
| 2026-05-04 20:31 | 50.03791 | 8.54493 | 360 ft | 4 kts | 159° |
| 2026-05-04 20:31 | 50.03742 | 8.54519 | 357 ft | 10 kts | 168° |
| 2026-05-04 20:32 | 50.03693 | 8.54449 | 357 ft | 11 kts | 257° |
| 2026-05-04 20:32 | 50.03731 | 8.54376 | 357 ft | 8 kts | 330° |
| 2026-05-04 20:32 | 50.03786 | 8.54341 | 361 ft | 10 kts | 332° |
| 2026-05-04 20:32 | 50.03805 | 8.54247 | 357 ft | 10 kts | 263° |
| 2026-05-04 20:33 | 50.03781 | 8.54145 | 356 ft | 10 kts | 250° |
| 2026-05-04 20:33 | 50.03750 | 8.54017 | 359 ft | 16 kts | 250° |
| 2026-05-04 20:33 | 50.03708 | 8.53840 | 354 ft | 19 kts | 249° |
| 2026-05-04 20:33 | 50.03662 | 8.53650 | 350 ft | 19 kts | 249° |
| 2026-05-04 20:34 | 50.03614 | 8.53460 | 352 ft | 19 kts | 250° |
| 2026-05-04 20:34 | 50.03568 | 8.53269 | 350 ft | 19 kts | 249° |
| 2026-05-04 20:34 | 50.03523 | 8.53078 | 349 ft | 19 kts | 249° |
| 2026-05-04 20:34 | 50.03474 | 8.52887 | 350 ft | 19 kts | 248° |
| 2026-05-04 20:35 | 50.03429 | 8.52710 | 353 ft | 13 kts | 250° |
| 2026-05-04 20:35 | 50.03404 | 8.52612 | 353 ft | 7 kts | 238° |
| 2026-05-04 20:35 | 50.03360 | 8.52595 | 348 ft | 7 kts | 181° |
| 2026-05-04 20:35 | 50.03354 | 8.52595 | 347 ft | 0 kts | 180° |
| 2026-05-04 20:36 | 50.03352 | 8.52595 | 347 ft | 1 kts | 180° |
| 2026-05-04 20:36 | 50.03253 | 8.52595 | 350 ft | 42 kts | 179° |
| 2026-05-04 20:36 | 50.02689 | 8.52600 | 340 ft | 118 kts | 179° |
| 2026-05-04 20:36 | 50.02049 | 8.52608 | 338 ft | 158 kts | 179° |
| 2026-05-04 20:37 | 50.00404 | 8.52631 | 833 ft | 184 kts | 180° |
| 2026-05-04 20:37 | 49.99111 | 8.52650 | 1526 ft | 189 kts | 180° |
| 2026-05-04 20:37 | 49.97779 | 8.52667 | 2150 ft | 197 kts | 180° |
| 2026-05-04 20:37 | 49.96338 | 8.52776 | 2497 ft | 217 kts | 176° |
| 2026-05-04 20:38 | 49.94778 | 8.52918 | 2926 ft | 228 kts | 177° |
| 2026-05-04 20:38 | 49.93717 | 8.53020 | 3339 ft | 230 kts | 177° |
| 2026-05-04 20:38 | 49.92107 | 8.53164 | 3908 ft | 233 kts | 177° |
| 2026-05-04 20:38 | 49.89953 | 8.53319 | 4748 ft | 233 kts | 178° |
| 2026-05-04 20:39 | 49.88857 | 8.53401 | 5190 ft | 232 kts | 178° |
| 2026-05-04 20:39 | 49.87251 | 8.53511 | 5863 ft | 229 kts | 178° |
| 2026-05-04 20:39 | 49.85666 | 8.53633 | 6493 ft | 228 kts | 179° |
| 2026-05-04 20:39 | 49.84094 | 8.53751 | 7041 ft | 230 kts | 179° |
| 2026-05-04 20:40 | 49.82487 | 8.53864 | 7568 ft | 232 kts | 179° |
| 2026-05-04 20:40 | 49.80866 | 8.53973 | 8103 ft | 234 kts | 179° |
| 2026-05-04 20:40 | 49.79236 | 8.54080 | 8634 ft | 235 kts | 179° |
| 2026-05-04 20:40 | 49.77595 | 8.54113 | 9147 ft | 236 kts | 185° |
| 2026-05-04 20:41 | 49.75918 | 8.53876 | 9412 ft | 251 kts | 186° |
| 2026-05-04 20:41 | 49.74116 | 8.53614 | 9604 ft | 268 kts | 186° |
| 2026-05-04 20:41 | 49.72233 | 8.53355 | 10028 ft | 274 kts | 186° |
| 2026-05-04 20:41 | 49.70291 | 8.53095 | 10285 ft | 288 kts | 186° |
| 2026-05-04 20:42 | 49.68232 | 8.52822 | 10440 ft | 305 kts | 186° |
| 2026-05-04 20:42 | 49.66087 | 8.52540 | 10614 ft | 320 kts | 186° |
| 2026-05-04 20:42 | 49.63821 | 8.52242 | 11086 ft | 324 kts | 186° |
| 2026-05-04 20:42 | 49.61592 | 8.51950 | 11572 ft | 328 kts | 186° |
| 2026-05-04 20:43 | 49.59309 | 8.51651 | 12071 ft | 331 kts | 186° |
| 2026-05-04 20:43 | 49.57006 | 8.51348 | 12587 ft | 334 kts | 186° |
| 2026-05-04 20:43 | 49.54679 | 8.51043 | 13078 ft | 337 kts | 185° |
| 2026-05-04 20:43 | 49.52324 | 8.50733 | 13576 ft | 340 kts | 185° |
| 2026-05-04 20:44 | 49.49948 | 8.50422 | 14046 ft | 343 kts | 185° |
| 2026-05-04 20:44 | 49.47588 | 8.50112 | 14505 ft | 345 kts | 185° |
| 2026-05-04 20:44 | 49.45156 | 8.49794 | 14961 ft | 347 kts | 185° |
| 2026-05-04 20:44 | 49.42775 | 8.49482 | 15409 ft | 349 kts | 185° |
| 2026-05-04 20:45 | 49.40344 | 8.49163 | 15845 ft | 352 kts | 185° |
| 2026-05-04 20:45 | 49.37896 | 8.48844 | 16315 ft | 354 kts | 185° |
| 2026-05-04 20:45 | 49.35434 | 8.48523 | 16788 ft | 356 kts | 185° |
| 2026-05-04 20:45 | 49.32957 | 8.48201 | 17239 ft | 358 kts | 185° |
| 2026-05-04 20:46 | 49.30460 | 8.47876 | 17695 ft | 360 kts | 185° |
| 2026-05-04 20:46 | 49.27954 | 8.47552 | 18145 ft | 363 kts | 185° |
| 2026-05-04 20:46 | 49.25434 | 8.47224 | 18581 ft | 365 kts | 185° |
| 2026-05-04 20:46 | 49.22893 | 8.46894 | 18994 ft | 366 kts | 185° |
| 2026-05-04 20:47 | 49.20349 | 8.46563 | 19410 ft | 368 kts | 185° |
| 2026-05-04 20:47 | 49.17794 | 8.46231 | 19818 ft | 370 kts | 186° |
| 2026-05-04 20:47 | 49.15223 | 8.45897 | 20223 ft | 372 kts | 186° |
| 2026-05-04 20:47 | 49.12633 | 8.45562 | 20634 ft | 374 kts | 186° |
| 2026-05-04 20:48 | 49.10062 | 8.45230 | 21040 ft | 376 kts | 186° |
| 2026-05-04 20:48 | 49.07446 | 8.44889 | 21445 ft | 378 kts | 186° |
| 2026-05-04 20:48 | 49.04841 | 8.44275 | 21838 ft | 380 kts | 193° |
| 2026-05-04 20:48 | 49.02257 | 8.43351 | 22251 ft | 382 kts | 194° |
| 2026-05-04 20:49 | 48.99662 | 8.42428 | 22658 ft | 384 kts | 194° |
| 2026-05-04 20:49 | 48.97037 | 8.41504 | 22969 ft | 389 kts | 194° |
| 2026-05-04 20:49 | 48.94392 | 8.40581 | 23398 ft | 391 kts | 194° |
| 2026-05-04 20:49 | 48.91721 | 8.39653 | 23790 ft | 393 kts | 194° |
| 2026-05-04 20:50 | 48.89053 | 8.38728 | 24204 ft | 393 kts | 194° |
| 2026-05-04 20:50 | 48.86380 | 8.37802 | 24604 ft | 394 kts | 194° |
| 2026-05-04 20:50 | 48.83698 | 8.36874 | 24995 ft | 395 kts | 194° |
| 2026-05-04 20:50 | 48.81008 | 8.35943 | 25392 ft | 396 kts | 194° |
| 2026-05-04 20:51 | 48.78350 | 8.35025 | 25773 ft | 397 kts | 194° |
| 2026-05-04 20:51 | 48.75659 | 8.34065 | 26169 ft | 397 kts | 194° |
| 2026-05-04 20:51 | 48.72969 | 8.33074 | 26546 ft | 398 kts | 195° |
| 2026-05-04 20:51 | 48.70262 | 8.32074 | 26884 ft | 400 kts | 194° |
| 2026-05-04 20:52 | 48.67549 | 8.31075 | 27293 ft | 400 kts | 194° |
| 2026-05-04 20:52 | 48.64840 | 8.30084 | 27627 ft | 402 kts | 194° |
| 2026-05-04 20:52 | 48.62116 | 8.29091 | 27967 ft | 403 kts | 194° |
| 2026-05-04 20:52 | 48.59382 | 8.28097 | 28336 ft | 404 kts | 194° |
| 2026-05-04 20:53 | 48.56640 | 8.27101 | 28643 ft | 406 kts | 194° |
| 2026-05-04 20:53 | 48.53890 | 8.26103 | 28995 ft | 407 kts | 194° |
| 2026-05-04 20:53 | 48.51140 | 8.25289 | 29320 ft | 409 kts | 188° |
| 2026-05-04 20:53 | 48.48297 | 8.24982 | 29641 ft | 411 kts | 182° |
| 2026-05-04 20:54 | 48.45430 | 8.25212 | 29971 ft | 415 kts | 175° |
| 2026-05-04 20:54 | 48.42571 | 8.25900 | 30262 ft | 416 kts | 173° |
| 2026-05-04 20:54 | 48.39703 | 8.26632 | 30471 ft | 420 kts | 173° |
| 2026-05-04 20:54 | 48.36808 | 8.27349 | 30746 ft | 421 kts | 173° |
| 2026-05-04 20:55 | 48.33903 | 8.28057 | 30913 ft | 425 kts | 174° |
| 2026-05-04 20:55 | 48.30973 | 8.28767 | 31162 ft | 427 kts | 174° |
| 2026-05-04 20:55 | 48.28027 | 8.29478 | 31408 ft | 429 kts | 174° |
| 2026-05-04 20:55 | 48.25068 | 8.30192 | 31647 ft | 431 kts | 174° |
| 2026-05-04 20:56 | 48.22104 | 8.30906 | 31895 ft | 433 kts | 174° |
| 2026-05-04 20:56 | 48.19165 | 8.31612 | 32129 ft | 435 kts | 174° |
| 2026-05-04 20:56 | 48.16160 | 8.32334 | 32341 ft | 437 kts | 174° |
| 2026-05-04 20:56 | 48.13150 | 8.33061 | 32544 ft | 439 kts | 174° |
| 2026-05-04 20:57 | 48.10137 | 8.33795 | 32719 ft | 440 kts | 174° |
| 2026-05-04 20:57 | 48.07100 | 8.34532 | 32907 ft | 442 kts | 174° |
| 2026-05-04 20:57 | 48.04057 | 8.35271 | 33066 ft | 443 kts | 174° |
| 2026-05-04 20:57 | 48.00999 | 8.36010 | 33208 ft | 445 kts | 174° |
| 2026-05-04 20:58 | 47.97939 | 8.36749 | 33356 ft | 446 kts | 174° |
| 2026-05-04 20:58 | 47.94872 | 8.37489 | 33480 ft | 447 kts | 174° |
| 2026-05-04 20:58 | 47.91800 | 8.38230 | 33622 ft | 447 kts | 174° |
| 2026-05-04 20:58 | 47.88722 | 8.38972 | 33825 ft | 446 kts | 174° |
| 2026-05-04 20:59 | 47.85696 | 8.39700 | 33983 ft | 446 kts | 174° |
| 2026-05-04 20:59 | 47.82632 | 8.40434 | 34121 ft | 446 kts | 174° |
| 2026-05-04 20:59 | 47.79568 | 8.41168 | 34249 ft | 446 kts | 174° |
| 2026-05-04 20:59 | 47.76500 | 8.41902 | 34370 ft | 446 kts | 174° |
| 2026-05-04 21:00 | 47.73429 | 8.42636 | 34484 ft | 447 kts | 174° |
| 2026-05-04 21:00 | 47.70352 | 8.43371 | 34551 ft | 448 kts | 174° |
| 2026-05-04 21:00 | 47.67272 | 8.43984 | 34672 ft | 446 kts | 178° |
| 2026-05-04 21:00 | 47.64171 | 8.44430 | 34787 ft | 447 kts | 178° |
| 2026-05-04 21:01 | 47.61075 | 8.44877 | 34917 ft | 447 kts | 178° |
| 2026-05-04 21:01 | 47.57975 | 8.45329 | 35014 ft | 448 kts | 178° |
| 2026-05-04 21:01 | 47.51822 | 8.46233 | 35017 ft | 447 kts | 178° |
| 2026-05-04 21:02 | 47.45628 | 8.47143 | 35019 ft | 449 kts | 178° |
| 2026-05-04 21:02 | 47.39393 | 8.48056 | 35019 ft | 449 kts | 178° |
| 2026-05-04 21:03 | 47.33211 | 8.48960 | 35016 ft | 449 kts | 178° |
| 2026-05-04 21:03 | 47.26996 | 8.49865 | 35012 ft | 449 kts | 178° |
| 2026-05-04 21:04 | 47.20767 | 8.50774 | 35004 ft | 449 kts | 178° |
| 2026-05-04 21:04 | 47.14542 | 8.51679 | 34997 ft | 450 kts | 178° |
| 2026-05-04 21:05 | 47.08303 | 8.52584 | 34993 ft | 450 kts | 178° |
| 2026-05-04 21:05 | 47.02059 | 8.53487 | 34975 ft | 451 kts | 178° |
| 2026-05-04 21:06 | 46.95843 | 8.54384 | 35006 ft | 452 kts | 178° |
| 2026-05-04 21:06 | 46.89580 | 8.55284 | 35021 ft | 453 kts | 178° |
| 2026-05-04 21:07 | 46.83314 | 8.56183 | 35026 ft | 449 kts | 178° |
| 2026-05-04 21:07 | 46.77082 | 8.57081 | 35008 ft | 450 kts | 178° |
| 2026-05-04 21:08 | 46.70810 | 8.57972 | 35046 ft | 454 kts | 178° |
| 2026-05-04 21:08 | 46.64556 | 8.58864 | 35065 ft | 453 kts | 178° |
| 2026-05-04 21:09 | 46.58324 | 8.59747 | 35139 ft | 454 kts | 178° |
| 2026-05-04 21:09 | 46.55183 | 8.60193 | 35302 ft | 453 kts | 178° |
| 2026-05-04 21:09 | 46.52051 | 8.60638 | 35441 ft | 453 kts | 178° |
| 2026-05-04 21:10 | 46.48896 | 8.61086 | 35546 ft | 453 kts | 178° |
| 2026-05-04 21:10 | 46.45760 | 8.61529 | 35688 ft | 452 kts | 178° |
| 2026-05-04 21:10 | 46.42622 | 8.61971 | 35812 ft | 452 kts | 178° |
| 2026-05-04 21:10 | 46.39486 | 8.62414 | 35921 ft | 453 kts | 178° |
| 2026-05-04 21:11 | 46.36351 | 8.62856 | 36074 ft | 452 kts | 178° |
| 2026-05-04 21:11 | 46.33216 | 8.63299 | 36187 ft | 452 kts | 178° |
| 2026-05-04 21:11 | 46.30083 | 8.63741 | 36322 ft | 452 kts | 178° |
| 2026-05-04 21:11 | 46.26948 | 8.64181 | 36449 ft | 452 kts | 178° |
| 2026-05-04 21:12 | 46.23822 | 8.64619 | 36567 ft | 451 kts | 178° |
| 2026-05-04 21:12 | 46.20738 | 8.65050 | 36676 ft | 451 kts | 178° |
| 2026-05-04 21:12 | 46.14476 | 8.65926 | 36856 ft | 452 kts | 178° |
| 2026-05-04 21:13 | 46.11348 | 8.66362 | 37030 ft | 450 kts | 178° |
| 2026-05-04 21:13 | 46.08231 | 8.66576 | 37083 ft | 447 kts | 182° |
| 2026-05-04 21:13 | 46.01972 | 8.66667 | 37094 ft | 450 kts | 182° |
| 2026-05-04 21:14 | 45.95736 | 8.66781 | 37096 ft | 448 kts | 182° |
| 2026-05-04 21:14 | 45.89489 | 8.66905 | 37093 ft | 449 kts | 182° |
| 2026-05-04 21:15 | 45.83249 | 8.67029 | 37081 ft | 448 kts | 182° |
| 2026-05-04 21:15 | 45.77050 | 8.67150 | 37070 ft | 447 kts | 182° |
| 2026-05-04 21:16 | 45.70799 | 8.67273 | 37079 ft | 451 kts | 182° |
| 2026-05-04 21:16 | 45.64518 | 8.67397 | 37106 ft | 450 kts | 182° |
| 2026-05-04 21:17 | 45.58273 | 8.67521 | 37104 ft | 449 kts | 182° |
| 2026-05-04 21:17 | 45.52015 | 8.67644 | 37102 ft | 449 kts | 182° |
| 2026-05-04 21:18 | 45.45760 | 8.67781 | 37102 ft | 449 kts | 182° |
| 2026-05-04 21:18 | 45.39550 | 8.67911 | 37088 ft | 448 kts | 182° |
| 2026-05-04 21:19 | 45.33311 | 8.68032 | 37080 ft | 448 kts | 182° |
| 2026-05-04 21:19 | 45.27061 | 8.68151 | 37082 ft | 449 kts | 182° |
| 2026-05-04 21:20 | 45.20810 | 8.68272 | 37082 ft | 449 kts | 183° |
| 2026-05-04 21:20 | 45.14564 | 8.68391 | 37100 ft | 449 kts | 183° |
| 2026-05-04 21:21 | 45.08315 | 8.68510 | 37108 ft | 449 kts | 183° |
| 2026-05-04 21:21 | 45.02114 | 8.68628 | 37107 ft | 448 kts | 183° |
| 2026-05-04 21:22 | 44.95865 | 8.68747 | 37078 ft | 448 kts | 183° |
| 2026-05-04 21:22 | 44.89625 | 8.68864 | 37090 ft | 448 kts | 183° |
| 2026-05-04 21:23 | 44.83389 | 8.68984 | 37076 ft | 448 kts | 183° |
| 2026-05-04 21:23 | 44.77155 | 8.69102 | 37081 ft | 448 kts | 183° |
| 2026-05-04 21:24 | 44.70956 | 8.69219 | 37091 ft | 448 kts | 183° |
| 2026-05-04 21:24 | 44.64713 | 8.69337 | 37085 ft | 448 kts | 183° |
| 2026-05-04 21:25 | 44.58463 | 8.69454 | 37093 ft | 448 kts | 184° |
| 2026-05-04 21:25 | 44.53275 | 8.69550 | 37098 ft | 449 kts | 184° |
| 2026-05-04 21:26 | 44.47030 | 8.69666 | 37100 ft | 449 kts | 183° |
| 2026-05-04 21:26 | 44.40780 | 8.69784 | 37097 ft | 449 kts | 183° |
| 2026-05-04 21:27 | 44.34578 | 8.69900 | 37101 ft | 449 kts | 183° |
| 2026-05-04 21:27 | 44.28330 | 8.70016 | 37057 ft | 449 kts | 183° |
| 2026-05-04 21:28 | 44.22093 | 8.70132 | 37070 ft | 449 kts | 184° |
| 2026-05-04 21:28 | 44.15878 | 8.70248 | 37066 ft | 449 kts | 184° |
| 2026-05-04 21:29 | 44.09638 | 8.70364 | 37059 ft | 449 kts | 184° |
| 2026-05-04 21:29 | 44.03463 | 8.70481 | 37060 ft | 448 kts | 184° |
| 2026-05-04 21:30 | 43.97162 | 8.70596 | 37053 ft | 447 kts | 184° |
| 2026-05-04 21:30 | 43.90939 | 8.70710 | 37053 ft | 447 kts | 184° |
| 2026-05-04 21:31 | 43.81624 | 8.70883 | 37047 ft | 446 kts | 184° |
| 2026-05-04 21:32 | 43.75412 | 8.70996 | 37043 ft | 446 kts | 184° |
| 2026-05-04 21:32 | 43.69209 | 8.71110 | 37026 ft | 446 kts | 184° |
| 2026-05-04 21:33 | 43.63016 | 8.71226 | 37043 ft | 444 kts | 184° |
| 2026-05-04 21:33 | 43.56838 | 8.71257 | 37037 ft | 443 kts | 185° |
| 2026-05-04 21:34 | 43.50705 | 8.71224 | 37033 ft | 442 kts | 187° |
| 2026-05-04 21:34 | 43.44722 | 8.69922 | 37032 ft | 431 kts | 201° |
| 2026-05-04 21:35 | 43.39243 | 8.66734 | 37026 ft | 426 kts | 209° |
| 2026-05-04 21:35 | 43.33895 | 8.63226 | 37029 ft | 426 kts | 209° |
| 2026-05-04 21:36 | 43.30038 | 8.60731 | 37022 ft | 426 kts | 209° |
| 2026-05-04 21:36 | 43.24715 | 8.57299 | 37043 ft | 425 kts | 209° |
| 2026-05-04 21:37 | 43.19363 | 8.53850 | 37038 ft | 425 kts | 209° |
| 2026-05-04 21:37 | 43.14007 | 8.50405 | 37038 ft | 425 kts | 209° |
| 2026-05-04 21:38 | 43.08657 | 8.46971 | 37037 ft | 424 kts | 209° |
| 2026-05-04 21:38 | 43.03315 | 8.43550 | 37037 ft | 423 kts | 209° |
| 2026-05-04 21:39 | 42.98011 | 8.40159 | 37034 ft | 423 kts | 209° |
| 2026-05-04 21:39 | 42.92678 | 8.36756 | 37033 ft | 423 kts | 209° |
| 2026-05-04 21:40 | 42.87351 | 8.33362 | 37032 ft | 423 kts | 208° |
| 2026-05-04 21:40 | 42.82011 | 8.29966 | 37025 ft | 423 kts | 208° |
| 2026-05-04 21:41 | 42.76678 | 8.26584 | 37023 ft | 423 kts | 208° |
| 2026-05-04 21:41 | 42.71372 | 8.23221 | 37012 ft | 422 kts | 209° |
| 2026-05-04 21:42 | 42.66064 | 8.19863 | 37031 ft | 420 kts | 209° |
| 2026-05-04 21:42 | 42.60752 | 8.16504 | 37025 ft | 420 kts | 209° |
| 2026-05-04 21:43 | 42.55447 | 8.13157 | 37024 ft | 420 kts | 209° |
| 2026-05-04 21:43 | 42.50168 | 8.09839 | 37021 ft | 421 kts | 209° |
| 2026-05-04 21:44 | 42.44846 | 8.06503 | 37022 ft | 420 kts | 209° |
| 2026-05-04 21:44 | 42.39536 | 8.03180 | 37017 ft | 421 kts | 209° |
| 2026-05-04 21:45 | 42.34219 | 7.99859 | 37020 ft | 421 kts | 209° |
| 2026-05-04 21:45 | 42.28858 | 7.96689 | 37043 ft | 421 kts | 206° |
| 2026-05-04 21:46 | 42.23443 | 7.93715 | 37009 ft | 422 kts | 206° |
| 2026-05-04 21:46 | 42.17995 | 7.90714 | 37010 ft | 422 kts | 206° |
| 2026-05-04 21:47 | 42.12546 | 7.87720 | 36992 ft | 422 kts | 206° |
| 2026-05-04 21:47 | 42.07103 | 7.84739 | 37007 ft | 422 kts | 206° |
| 2026-05-04 21:48 | 42.01659 | 7.81759 | 37022 ft | 422 kts | 206° |
| 2026-05-04 21:48 | 41.96259 | 7.78811 | 37026 ft | 422 kts | 206° |
| 2026-05-04 21:49 | 41.90816 | 7.75846 | 37011 ft | 421 kts | 207° |
| 2026-05-04 21:49 | 41.85369 | 7.72882 | 36998 ft | 421 kts | 207° |
| 2026-05-04 21:50 | 41.79935 | 7.69931 | 36998 ft | 421 kts | 207° |
| 2026-05-04 21:50 | 41.74497 | 7.66982 | 36997 ft | 421 kts | 207° |
| 2026-05-04 21:51 | 41.69094 | 7.64060 | 37000 ft | 421 kts | 207° |
| 2026-05-04 21:51 | 41.63655 | 7.61122 | 36999 ft | 421 kts | 207° |
| 2026-05-04 21:52 | 41.58181 | 7.58255 | 37007 ft | 424 kts | 203° |
| 2026-05-04 21:52 | 41.52383 | 7.56502 | 36976 ft | 430 kts | 195° |
| 2026-05-04 21:53 | 41.46523 | 7.55197 | 36993 ft | 429 kts | 195° |
| 2026-05-04 21:53 | 41.40631 | 7.53845 | 36995 ft | 429 kts | 196° |
| 2026-05-04 21:54 | 41.34732 | 7.52489 | 36997 ft | 429 kts | 196° |
| 2026-05-04 21:54 | 41.28862 | 7.51145 | 36987 ft | 429 kts | 196° |
| 2026-05-04 21:55 | 41.22958 | 7.49795 | 36993 ft | 430 kts | 196° |
| 2026-05-04 21:55 | 41.17056 | 7.48446 | 36999 ft | 430 kts | 196° |
| 2026-05-04 21:56 | 41.11142 | 7.47099 | 37002 ft | 431 kts | 196° |
| 2026-05-04 21:56 | 41.05259 | 7.45761 | 36995 ft | 431 kts | 196° |
| 2026-05-04 21:57 | 40.99335 | 7.44416 | 37004 ft | 432 kts | 196° |
| 2026-05-04 21:57 | 40.93411 | 7.43073 | 37006 ft | 432 kts | 196° |
| 2026-05-04 21:58 | 40.87479 | 7.41732 | 36985 ft | 432 kts | 196° |
| 2026-05-04 21:58 | 40.81540 | 7.40391 | 37013 ft | 433 kts | 196° |
| 2026-05-04 21:59 | 40.75589 | 7.39049 | 37017 ft | 434 kts | 196° |
| 2026-05-04 21:59 | 40.69627 | 7.37708 | 37014 ft | 435 kts | 196° |
| 2026-05-04 22:00 | 40.63648 | 7.36365 | 37008 ft | 435 kts | 196° |
| 2026-05-04 22:00 | 40.57706 | 7.35033 | 37017 ft | 436 kts | 196° |
| 2026-05-04 22:01 | 40.51713 | 7.33692 | 37020 ft | 437 kts | 196° |
| 2026-05-04 22:01 | 40.45723 | 7.32354 | 37024 ft | 437 kts | 196° |
| 2026-05-04 22:02 | 40.39725 | 7.31017 | 37026 ft | 437 kts | 196° |
| 2026-05-04 22:02 | 40.33719 | 7.29681 | 37026 ft | 437 kts | 196° |
| 2026-05-04 22:03 | 40.27714 | 7.28347 | 37026 ft | 437 kts | 196° |
| 2026-05-04 22:03 | 40.21754 | 7.27026 | 37018 ft | 438 kts | 196° |
| 2026-05-04 22:04 | 40.15734 | 7.25693 | 37024 ft | 438 kts | 196° |
| 2026-05-04 22:04 | 40.09705 | 7.24360 | 37028 ft | 439 kts | 196° |
| 2026-05-04 22:05 | 40.03682 | 7.23032 | 37032 ft | 439 kts | 196° |
| 2026-05-04 22:05 | 39.97651 | 7.21705 | 37032 ft | 440 kts | 196° |
| 2026-05-04 22:06 | 39.91643 | 7.20384 | 37031 ft | 440 kts | 196° |
| 2026-05-04 22:06 | 39.85582 | 7.19054 | 37032 ft | 441 kts | 196° |
| 2026-05-04 22:07 | 39.79528 | 7.17729 | 37016 ft | 441 kts | 196° |
| 2026-05-04 22:07 | 39.73494 | 7.16408 | 37025 ft | 443 kts | 196° |
| 2026-05-04 22:08 | 39.67375 | 7.15231 | 37033 ft | 446 kts | 194° |
| 2026-05-04 22:08 | 39.61208 | 7.14176 | 37039 ft | 447 kts | 194° |
| 2026-05-04 22:09 | 39.55044 | 7.13091 | 37031 ft | 447 kts | 194° |
| 2026-05-04 22:09 | 39.48903 | 7.11997 | 37041 ft | 448 kts | 194° |
| 2026-05-04 22:10 | 39.42722 | 7.10895 | 37048 ft | 449 kts | 194° |
| 2026-05-04 22:10 | 39.36519 | 7.09792 | 37051 ft | 449 kts | 194° |
| 2026-05-04 22:11 | 39.30312 | 7.08689 | 37044 ft | 450 kts | 194° |
| 2026-05-04 22:11 | 39.24131 | 7.07595 | 37044 ft | 451 kts | 194° |
| 2026-05-04 22:12 | 39.17905 | 7.06494 | 37053 ft | 451 kts | 194° |
| 2026-05-04 22:12 | 39.11681 | 7.05394 | 37042 ft | 451 kts | 194° |
| 2026-05-04 22:13 | 39.05454 | 7.04296 | 37045 ft | 452 kts | 194° |
| 2026-05-04 22:13 | 38.99260 | 7.03206 | 37043 ft | 452 kts | 194° |
| 2026-05-04 22:14 | 38.93005 | 7.02179 | 37050 ft | 453 kts | 193° |
| 2026-05-04 22:14 | 38.86747 | 7.01176 | 37046 ft | 453 kts | 193° |
| 2026-05-04 22:15 | 38.81546 | 7.00336 | 37048 ft | 453 kts | 193° |
| 2026-05-04 22:15 | 38.75275 | 6.99321 | 37052 ft | 454 kts | 193° |
| 2026-05-04 22:16 | 38.69005 | 6.98307 | 37061 ft | 454 kts | 193° |
| 2026-05-04 22:16 | 38.62748 | 6.97300 | 37056 ft | 451 kts | 193° |
| 2026-05-04 22:17 | 38.56517 | 6.96294 | 37054 ft | 452 kts | 193° |
| 2026-05-04 22:17 | 38.50279 | 6.95290 | 37049 ft | 452 kts | 193° |
| 2026-05-04 22:18 | 38.44037 | 6.94289 | 37008 ft | 451 kts | 194° |
| 2026-05-04 22:18 | 38.37863 | 6.93303 | 37044 ft | 449 kts | 194° |
| 2026-05-04 22:19 | 38.31655 | 6.92306 | 37046 ft | 450 kts | 194° |
| 2026-05-04 22:19 | 38.25446 | 6.91313 | 37046 ft | 449 kts | 194° |
| 2026-05-04 22:20 | 38.19229 | 6.90322 | 37049 ft | 449 kts | 194° |
| 2026-05-04 22:20 | 38.13022 | 6.89334 | 37043 ft | 449 kts | 194° |
| 2026-05-04 22:21 | 38.06815 | 6.88348 | 37044 ft | 449 kts | 194° |
| 2026-05-04 22:21 | 38.00606 | 6.87363 | 37042 ft | 449 kts | 194° |
| 2026-05-04 22:22 | 37.94429 | 6.86387 | 37034 ft | 449 kts | 194° |
| 2026-05-04 22:22 | 37.88222 | 6.85404 | 37036 ft | 449 kts | 194° |
| 2026-05-04 22:23 | 37.82043 | 6.84428 | 37037 ft | 450 kts | 194° |
| 2026-05-04 22:23 | 37.75840 | 6.83452 | 37037 ft | 447 kts | 194° |
| 2026-05-04 22:24 | 37.69640 | 6.82476 | 37036 ft | 450 kts | 194° |
| 2026-05-04 22:24 | 37.63463 | 6.81506 | 37037 ft | 449 kts | 194° |
| 2026-05-04 22:25 | 37.57251 | 6.80532 | 37031 ft | 449 kts | 194° |
| 2026-05-04 22:25 | 37.51044 | 6.79561 | 37003 ft | 449 kts | 194° |
| 2026-05-04 22:26 | 37.44835 | 6.78590 | 37020 ft | 449 kts | 194° |
| 2026-05-04 22:26 | 37.38656 | 6.77626 | 37028 ft | 449 kts | 194° |
| 2026-05-04 22:27 | 37.32442 | 6.76659 | 37038 ft | 450 kts | 194° |
| 2026-05-04 22:27 | 37.26228 | 6.75692 | 37032 ft | 449 kts | 194° |
| 2026-05-04 22:28 | 37.20018 | 6.74729 | 37023 ft | 449 kts | 194° |
| 2026-05-04 22:28 | 37.13850 | 6.73773 | 37028 ft | 449 kts | 194° |
| 2026-05-04 22:29 | 37.07629 | 6.72811 | 37030 ft | 450 kts | 194° |
| 2026-05-04 22:29 | 37.01421 | 6.71852 | 37026 ft | 449 kts | 193° |
| 2026-05-04 22:30 | 36.95210 | 6.70895 | 37017 ft | 450 kts | 193° |
| 2026-05-04 22:30 | 36.89058 | 6.69952 | 37030 ft | 449 kts | 193° |
| 2026-05-04 22:31 | 36.82820 | 6.68992 | 37037 ft | 450 kts | 193° |
| 2026-05-04 22:31 | 36.76600 | 6.68038 | 37019 ft | 451 kts | 194° |
| 2026-05-04 22:32 | 36.70365 | 6.67081 | 37033 ft | 452 kts | 194° |
| 2026-05-04 22:32 | 36.64118 | 6.66125 | 37041 ft | 452 kts | 194° |
| 2026-05-04 22:33 | 36.57906 | 6.65177 | 37040 ft | 453 kts | 194° |
| 2026-05-04 22:33 | 36.51642 | 6.64222 | 37062 ft | 453 kts | 193° |
| 2026-05-04 22:34 | 36.45369 | 6.63264 | 37085 ft | 454 kts | 193° |
| 2026-05-04 22:34 | 36.39087 | 6.62311 | 37101 ft | 455 kts | 193° |
| 2026-05-04 22:35 | 36.32785 | 6.61386 | 37108 ft | 457 kts | 191° |
| 2026-05-04 22:35 | 36.26350 | 6.61608 | 37101 ft | 468 kts | 178° |
| 2026-05-04 22:36 | 36.19921 | 6.63219 | 37102 ft | 472 kts | 174° |
| 2026-05-04 22:36 | 36.13483 | 6.64886 | 37093 ft | 472 kts | 174° |
| 2026-05-04 22:37 | 36.07087 | 6.66516 | 37086 ft | 473 kts | 174° |
| 2026-05-04 22:37 | 36.00630 | 6.68160 | 37076 ft | 474 kts | 175° |
| 2026-05-04 22:38 | 35.94150 | 6.69806 | 37071 ft | 475 kts | 175° |
| 2026-05-04 22:38 | 35.87661 | 6.71453 | 37072 ft | 476 kts | 175° |
| 2026-05-04 22:39 | 35.81207 | 6.73089 | 37076 ft | 476 kts | 175° |
| 2026-05-04 22:39 | 35.74726 | 6.74729 | 37078 ft | 475 kts | 175° |
| 2026-05-04 22:40 | 35.68245 | 6.76366 | 37076 ft | 475 kts | 175° |
| 2026-05-04 22:40 | 35.61766 | 6.78000 | 37078 ft | 475 kts | 175° |
| 2026-05-04 22:41 | 35.55281 | 6.79631 | 37053 ft | 475 kts | 174° |
| 2026-05-04 22:41 | 35.48794 | 6.81260 | 37077 ft | 475 kts | 174° |
| 2026-05-04 22:42 | 35.42346 | 6.82878 | 37095 ft | 476 kts | 174° |
| 2026-05-04 22:42 | 35.35845 | 6.84507 | 37104 ft | 477 kts | 174° |
| 2026-05-04 22:43 | 35.29340 | 6.86133 | 37102 ft | 477 kts | 174° |
| 2026-05-04 22:43 | 35.22832 | 6.87757 | 37110 ft | 477 kts | 174° |
| 2026-05-04 22:44 | 35.16365 | 6.89370 | 37109 ft | 477 kts | 174° |
| 2026-05-04 22:44 | 35.09854 | 6.90991 | 37119 ft | 477 kts | 174° |
| 2026-05-04 22:45 | 35.03351 | 6.92606 | 37086 ft | 477 kts | 174° |
| 2026-05-04 22:45 | 34.93577 | 6.95030 | 37078 ft | 478 kts | 174° |
| 2026-05-04 22:46 | 34.87032 | 6.96649 | 37086 ft | 479 kts | 174° |
| 2026-05-04 22:46 | 34.80494 | 6.98264 | 37072 ft | 479 kts | 174° |
| 2026-05-04 22:47 | 34.73995 | 6.99894 | 37063 ft | 480 kts | 173° |
| 2026-05-04 22:47 | 34.67437 | 7.01562 | 37056 ft | 481 kts | 173° |
| 2026-05-04 22:48 | 34.60879 | 7.03223 | 37045 ft | 482 kts | 174° |
| 2026-05-04 22:48 | 34.54306 | 7.04882 | 37048 ft | 482 kts | 174° |
| 2026-05-04 22:49 | 34.47780 | 7.06526 | 37032 ft | 482 kts | 174° |
| 2026-05-04 22:49 | 34.41299 | 7.08155 | 37026 ft | 483 kts | 174° |
| 2026-05-04 22:50 | 34.34722 | 7.09806 | 37032 ft | 483 kts | 174° |
| 2026-05-04 22:50 | 34.28165 | 7.11449 | 37027 ft | 483 kts | 174° |
| 2026-05-04 22:51 | 34.21582 | 7.13096 | 37033 ft | 483 kts | 174° |
| 2026-05-04 22:51 | 34.14993 | 7.14742 | 37033 ft | 483 kts | 174° |
| 2026-05-04 22:52 | 34.08397 | 7.16387 | 37018 ft | 483 kts | 174° |
| 2026-05-04 22:52 | 34.01809 | 7.18028 | 37010 ft | 484 kts | 174° |
| 2026-05-04 22:53 | 33.95853 | 7.19509 | 37016 ft | 483 kts | 174° |
| 2026-05-04 22:54 | 33.94321 | 7.19890 | 37018 ft | 483 kts | 174° |
| 2026-05-04 22:54 | 33.87772 | 7.21515 | 37019 ft | 484 kts | 174° |